createdAt,value
2017-10-30T00:01:57.509Z,4.90
2017-10-30T00:04:24.585Z,4.90
2017-10-30T00:06:51.643Z,4.90
2017-10-30T00:09:18.688Z,4.90
2017-10-30T00:11:45.840Z,4.90
2017-10-30T00:14:12.871Z,5.00
2017-10-30T00:16:39.931Z,5.00
2017-10-30T00:19:08.015Z,5.00
2017-10-30T00:21:35.047Z,5.10
2017-10-30T00:24:02.087Z,5.10
2017-10-30T00:26:29.875Z,5.00
2017-10-30T00:28:56.911Z,5.00
2017-10-30T00:31:24.215Z,5.00
2017-10-30T00:33:51.367Z,5.00
2017-10-30T00:36:18.399Z,5.00
2017-10-30T00:38:45.446Z,5.00
2017-10-30T00:41:12.554Z,4.90
2017-10-30T00:43:40.432Z,4.70
2017-10-30T00:46:07.475Z,4.70
2017-10-30T00:48:34.512Z,4.60
2017-10-30T00:51:02.396Z,4.40
2017-10-30T00:53:30.423Z,4.40
2017-10-30T00:55:57.512Z,4.40
2017-10-30T00:58:24.758Z,4.30
2017-10-30T01:00:51.933Z,4.30
2017-10-30T01:03:19.065Z,4.30
2017-10-30T01:05:46.094Z,4.30
2017-10-30T01:08:13.969Z,4.20
2017-10-30T01:10:41.009Z,4.20
2017-10-30T01:13:08.807Z,4.10
2017-10-30T01:15:35.852Z,4.00
2017-10-30T01:18:02.877Z,4.00
2017-10-30T01:20:30.669Z,4.00
2017-10-30T01:22:57.707Z,3.90
2017-10-30T01:25:24.867Z,4.00
2017-10-30T01:27:51.975Z,4.10
2017-10-30T01:30:19.785Z,4.10
2017-10-30T01:32:46.919Z,4.10
2017-10-30T01:35:13.966Z,4.10
2017-10-30T01:37:41.075Z,4.10
2017-10-30T01:40:08.102Z,4.20
2017-10-30T01:42:35.135Z,4.20
2017-10-30T01:45:02.177Z,4.20
2017-10-30T01:47:29.206Z,4.20
2017-10-30T01:49:56.246Z,4.10
2017-10-30T01:52:23.403Z,4.10
2017-10-30T01:54:50.446Z,4.00
2017-10-30T01:57:17.493Z,4.00
2017-10-30T01:59:45.364Z,4.00
2017-10-30T02:02:13.230Z,4.00
2017-10-30T02:04:40.302Z,4.00
2017-10-30T02:07:07.422Z,4.00
2017-10-30T02:09:34.464Z,4.00
2017-10-30T02:12:02.299Z,4.10
2017-10-30T02:14:29.345Z,4.00
2017-10-30T02:16:56.371Z,4.00
2017-10-30T02:19:23.399Z,4.00
2017-10-30T02:21:50.444Z,4.00
2017-10-30T02:24:17.572Z,4.00
2017-10-30T02:26:45.368Z,4.00
2017-10-30T02:29:12.743Z,4.00
2017-10-30T02:31:39.847Z,4.10
2017-10-30T02:34:07.642Z,4.20
2017-10-30T02:36:34.695Z,4.20
2017-10-30T02:39:01.729Z,4.30
2017-10-30T02:41:28.767Z,4.30
2017-10-30T02:43:55.814Z,4.40
2017-10-30T02:46:22.849Z,4.40
2017-10-30T02:48:50.720Z,4.50
2017-10-30T02:51:18.531Z,4.50
2017-10-30T02:53:45.579Z,4.50
2017-10-30T02:56:12.632Z,4.50
2017-10-30T02:58:39.698Z,4.60
2017-10-30T03:01:06.744Z,4.60
2017-10-30T03:03:33.774Z,4.60
2017-10-30T03:06:00.814Z,4.50
2017-10-30T03:08:27.927Z,4.40
2017-10-30T03:10:54.973Z,4.30
2017-10-30T03:13:22.837Z,4.10
2017-10-30T03:15:50.638Z,4.00
2017-10-30T03:18:17.755Z,4.00
2017-10-30T03:20:45.780Z,3.90
2017-10-30T03:23:12.804Z,3.90
2017-10-30T03:25:39.832Z,3.90
2017-10-30T03:28:06.867Z,3.80
2017-10-30T03:30:34.747Z,3.80
2017-10-30T03:33:01.786Z,3.80
2017-10-30T03:35:28.823Z,3.80
2017-10-30T03:37:57.911Z,3.80
2017-10-30T03:40:26.198Z,3.70
2017-10-30T03:42:54.455Z,3.70
2017-10-30T03:45:22.038Z,3.70
2017-10-30T03:47:50.289Z,3.70
2017-10-30T03:50:18.021Z,3.70
2017-10-30T03:52:45.500Z,3.70
2017-10-30T03:55:12.986Z,3.80
2017-10-30T03:57:41.260Z,3.80
2017-10-30T04:00:09.501Z,3.90
2017-10-30T04:02:37.007Z,3.90
2017-10-30T04:05:05.274Z,4.00
2017-10-30T04:07:33.546Z,4.10
2017-10-30T04:10:01.794Z,4.20
2017-10-30T04:12:29.279Z,4.20
2017-10-30T04:14:58.722Z,4.40
2017-10-30T04:17:26.248Z,4.40
2017-10-30T04:19:54.500Z,4.60
2017-10-30T04:22:21.980Z,4.60
2017-10-30T04:24:50.215Z,4.70
2017-10-30T04:27:17.811Z,4.70
2017-10-30T04:29:46.052Z,4.80
2017-10-30T04:32:13.527Z,4.80
2017-10-30T04:34:41.111Z,4.80
2017-10-30T04:37:09.352Z,4.80
2017-10-30T04:39:36.838Z,4.80
2017-10-30T04:42:05.133Z,4.90
2017-10-30T04:44:33.371Z,4.90
2017-10-30T04:47:00.843Z,4.80
2017-10-30T04:49:29.319Z,4.90
2017-10-30T04:51:58.471Z,4.80
2017-10-30T04:54:25.954Z,4.80
2017-10-30T04:56:53.557Z,4.80
2017-10-30T04:59:21.797Z,4.90
2017-10-30T05:01:49.288Z,4.90
2017-10-30T05:04:17.548Z,5.00
2017-10-30T05:06:45.124Z,5.00
2017-10-30T05:09:13.403Z,5.10
2017-10-30T05:11:41.656Z,5.10
2017-10-30T05:14:09.130Z,5.10
2017-10-30T05:16:37.420Z,5.20
2017-10-30T05:19:05.700Z,5.20
2017-10-30T05:21:34.051Z,5.20
2017-10-30T05:24:02.347Z,5.30
2017-10-30T05:26:30.599Z,5.30
2017-10-30T05:28:58.987Z,5.20
2017-10-30T05:31:26.463Z,5.30
2017-10-30T05:33:54.719Z,5.30
2017-10-30T05:36:22.188Z,5.30
2017-10-30T05:38:50.435Z,5.30
2017-10-30T05:41:17.945Z,5.30
2017-10-30T05:43:46.184Z,5.30
2017-10-30T05:46:14.489Z,5.30
2017-10-30T05:48:42.746Z,5.30
2017-10-30T05:51:10.316Z,5.30
2017-10-30T05:53:38.555Z,5.30
2017-10-30T05:56:06.056Z,5.30
2017-10-30T05:58:34.304Z,5.30
2017-10-30T06:01:01.784Z,5.30
2017-10-30T06:03:29.678Z,5.40
2017-10-30T06:05:57.221Z,5.40
2017-10-30T06:08:25.493Z,5.30
2017-10-30T06:10:53.765Z,5.30
2017-10-30T06:13:21.236Z,5.30
2017-10-30T06:15:49.482Z,5.40
2017-10-30T06:18:17.092Z,5.40
2017-10-30T06:20:44.627Z,5.40
2017-10-30T06:23:12.872Z,5.40
2017-10-30T06:25:40.356Z,5.40
2017-10-30T06:28:08.650Z,5.50
2017-10-30T06:30:36.187Z,5.50
2017-10-30T06:33:03.675Z,5.50
2017-10-30T06:35:31.155Z,5.50
2017-10-30T06:37:58.663Z,5.50
2017-10-30T06:40:26.223Z,5.60
2017-10-30T06:42:53.797Z,5.60
2017-10-30T06:45:22.038Z,5.70
2017-10-30T06:47:49.532Z,5.70
2017-10-30T06:50:17.777Z,5.70
2017-10-30T06:52:45.402Z,5.70
2017-10-30T06:55:12.898Z,5.70
2017-10-30T06:57:40.380Z,5.80
2017-10-30T07:00:08.622Z,5.80
2017-10-30T07:02:36.120Z,5.80
2017-10-30T07:05:04.385Z,5.80
2017-10-30T07:07:32.664Z,5.80
2017-10-30T07:10:01.028Z,5.80
2017-10-30T07:12:28.502Z,5.90
2017-10-30T07:14:56.744Z,5.90
2017-10-30T07:17:24.230Z,5.90
2017-10-30T07:19:51.716Z,5.90
2017-10-30T07:22:19.256Z,5.90
2017-10-30T07:24:47.513Z,5.90
2017-10-30T07:27:15.094Z,5.90
2017-10-30T07:29:43.375Z,5.90
2017-10-30T07:32:11.643Z,5.90
2017-10-30T07:34:39.891Z,5.90
2017-10-30T07:37:07.359Z,5.90
2017-10-30T07:39:34.847Z,5.90
2017-10-30T07:42:03.117Z,5.80
2017-10-30T07:44:32.312Z,5.80
2017-10-30T07:47:01.530Z,5.80
2017-10-30T07:49:29.751Z,5.80
2017-10-30T07:51:57.243Z,5.80
2017-10-30T07:54:25.509Z,5.80
2017-10-30T07:56:54.517Z,5.80
2017-10-30T07:59:22.793Z,5.90
2017-10-30T08:01:51.059Z,5.90
2017-10-30T08:04:18.537Z,5.90
2017-10-30T08:06:46.781Z,6.00
2017-10-30T08:09:14.276Z,6.00
2017-10-30T08:11:42.521Z,6.10
2017-10-30T08:14:10.001Z,6.00
2017-10-30T08:16:38.280Z,6.20
2017-10-30T08:19:06.551Z,6.40
2017-10-30T08:21:34.828Z,6.50
2017-10-30T08:24:03.106Z,6.60
2017-10-30T08:26:32.298Z,6.70
2017-10-30T08:29:00.548Z,6.70
2017-10-30T08:31:28.040Z,6.70
2017-10-30T08:33:56.320Z,6.60
2017-10-30T08:36:24.559Z,6.40
2017-10-30T08:38:52.160Z,6.40
2017-10-30T08:41:20.396Z,6.40
2017-10-30T08:43:47.882Z,6.30
2017-10-30T08:46:16.140Z,6.20
2017-10-30T08:48:43.627Z,6.20
2017-10-30T08:51:11.868Z,6.20
2017-10-30T08:53:39.371Z,6.20
2017-10-30T08:56:06.849Z,6.20
2017-10-30T08:58:34.374Z,6.30
2017-10-30T09:01:03.547Z,6.40
2017-10-30T09:03:31.029Z,6.40
2017-10-30T09:05:59.272Z,6.50
2017-10-30T09:08:26.758Z,6.50
2017-10-30T09:10:55.006Z,6.70
2017-10-30T09:13:22.511Z,6.70
2017-10-30T09:15:50.772Z,7.00
2017-10-30T09:18:19.017Z,7.20
2017-10-30T09:20:46.500Z,7.20
2017-10-30T09:23:14.072Z,7.30
2017-10-30T09:25:42.319Z,7.40
2017-10-30T09:28:09.908Z,7.40
2017-10-30T09:30:38.156Z,7.40
2017-10-30T09:33:05.627Z,7.40
2017-10-30T09:35:33.824Z,7.50
2017-10-30T09:38:02.086Z,7.30
2017-10-30T09:40:30.323Z,7.30
2017-10-30T09:42:57.826Z,7.20
2017-10-30T09:45:26.074Z,8.00
2017-10-30T09:47:53.551Z,7.90
2017-10-30T09:50:21.020Z,8.10
2017-10-30T09:52:49.329Z,8.10
2017-10-30T09:55:16.855Z,8.10
2017-10-30T09:57:45.104Z,8.10
2017-10-30T10:00:12.590Z,8.10
2017-10-30T10:02:40.834Z,8.20
2017-10-30T10:05:08.307Z,8.20
2017-10-30T10:07:35.914Z,8.20
2017-10-30T10:10:03.452Z,8.00
2017-10-30T10:12:30.938Z,7.80
2017-10-30T10:14:58.496Z,7.60
2017-10-30T10:17:26.029Z,7.50
2017-10-30T10:19:54.272Z,7.50
2017-10-30T10:22:21.764Z,7.50
2017-10-30T10:24:50.005Z,8.40
2017-10-30T10:27:18.251Z,8.90
2017-10-30T10:29:45.751Z,8.90
2017-10-30T10:32:14.019Z,9.10
2017-10-30T10:34:41.503Z,9.10
2017-10-30T10:37:09.764Z,8.90
2017-10-30T10:39:37.228Z,8.90
2017-10-30T10:42:05.315Z,8.60
2017-10-30T10:44:33.559Z,8.70
2017-10-30T10:47:01.033Z,8.70
2017-10-30T10:49:28.511Z,8.50
2017-10-30T10:51:56.873Z,8.50
2017-10-30T10:54:25.499Z,8.80
2017-10-30T10:56:53.019Z,8.80
2017-10-30T10:59:21.266Z,9.60
2017-10-30T11:01:48.751Z,9.60
2017-10-30T11:04:17.027Z,12.60
2017-10-30T11:06:45.312Z,14.10
2017-10-30T11:09:13.561Z,14.80
2017-10-30T11:11:41.047Z,14.80
2017-10-30T11:14:09.295Z,13.50
2017-10-30T11:16:36.812Z,13.50
2017-10-30T11:19:04.291Z,13.80
2017-10-30T11:21:31.800Z,14.70
2017-10-30T11:24:00.044Z,13.10
2017-10-30T11:26:27.630Z,13.10
2017-10-30T11:28:56.002Z,12.60
2017-10-30T11:31:23.486Z,12.60
2017-10-30T11:33:50.966Z,13.00
2017-10-30T11:36:19.200Z,13.60
2017-10-30T11:38:47.452Z,13.70
2017-10-30T11:41:14.934Z,13.60
2017-10-30T11:43:43.195Z,13.70
2017-10-30T11:46:11.435Z,15.20
2017-10-30T11:48:38.919Z,15.20
2017-10-30T11:51:07.920Z,17.30
2017-10-30T11:53:35.495Z,17.20
2017-10-30T11:56:03.741Z,20.00
2017-10-30T11:58:31.350Z,20.00
2017-10-30T12:00:59.599Z,18.70
2017-10-30T12:03:27.891Z,16.50
2017-10-30T12:05:56.148Z,14.40
2017-10-30T12:08:23.623Z,14.40
2017-10-30T12:10:51.880Z,14.20
2017-10-30T12:13:20.186Z,13.00
2017-10-30T12:15:48.495Z,12.10
2017-10-30T12:18:15.976Z,12.10
2017-10-30T12:20:43.484Z,11.60
2017-10-30T12:23:11.736Z,10.50
2017-10-30T12:25:39.213Z,10.50
2017-10-30T12:28:08.386Z,10.00
2017-10-30T12:30:35.868Z,10.00
2017-10-30T12:33:04.152Z,9.90
2017-10-30T12:35:32.428Z,9.90
2017-10-30T12:38:00.671Z,9.70
2017-10-30T12:40:28.171Z,9.70
2017-10-30T12:42:55.713Z,9.70
2017-10-30T12:45:23.960Z,9.40
2017-10-30T12:47:51.445Z,9.40
2017-10-30T12:50:19.723Z,9.10
2017-10-30T12:52:47.997Z,8.90
2017-10-30T12:55:16.275Z,8.70
2017-10-30T12:57:44.539Z,8.40
2017-10-30T13:00:12.023Z,8.40
2017-10-30T13:02:40.288Z,8.10
2017-10-30T13:05:09.483Z,7.70
2017-10-30T13:07:37.723Z,7.40
2017-10-30T13:10:05.224Z,7.40
2017-10-30T13:12:33.501Z,7.20
2017-10-30T13:15:01.741Z,7.30
2017-10-30T13:17:29.218Z,7.20
2017-10-30T13:19:56.792Z,7.40
2017-10-30T13:22:25.031Z,7.50
2017-10-30T13:24:52.526Z,7.50
2017-10-30T13:27:20.779Z,7.30
2017-10-30T13:29:49.028Z,7.20
2017-10-30T13:32:16.530Z,7.20
2017-10-30T13:34:44.794Z,7.80
2017-10-30T13:37:12.266Z,7.80
2017-10-30T13:39:40.654Z,7.80
2017-10-30T13:42:08.932Z,7.50
2017-10-30T13:44:37.203Z,7.60
2017-10-30T13:47:05.480Z,8.80
2017-10-30T13:49:33.787Z,11.60
2017-10-30T13:52:01.352Z,11.50
2017-10-30T13:54:28.963Z,14.00
2017-10-30T13:56:56.808Z,15.70
2017-10-30T13:59:24.291Z,14.50
2017-10-30T14:01:52.131Z,14.30
2017-10-30T14:04:19.615Z,12.40
2017-10-30T14:06:47.095Z,11.10
2017-10-30T14:09:15.331Z,9.80
2017-10-30T14:11:42.815Z,9.80
2017-10-30T14:14:10.283Z,9.50
2017-10-30T14:16:38.523Z,9.00
2017-10-30T14:19:06.006Z,9.00
2017-10-30T14:21:33.478Z,8.80
2017-10-30T14:24:01.718Z,8.40
2017-10-30T14:26:29.375Z,8.40
2017-10-30T14:28:56.854Z,8.40
2017-10-30T14:31:24.325Z,8.60
2017-10-30T14:33:52.576Z,8.80
2017-10-30T14:36:20.095Z,8.80
2017-10-30T14:38:47.570Z,9.20
2017-10-30T14:41:15.078Z,9.90
2017-10-30T14:43:42.843Z,10.70
2017-10-30T14:46:11.091Z,12.10
2017-10-30T14:48:38.584Z,12.10
2017-10-30T14:51:06.838Z,12.30
2017-10-30T14:53:34.311Z,12.30
2017-10-30T14:56:02.568Z,12.00
2017-10-30T14:58:30.247Z,12.00
2017-10-30T15:00:58.871Z,12.10
2017-10-30T15:03:26.427Z,12.10
2017-10-30T15:05:53.907Z,12.10
2017-10-30T15:08:21.379Z,12.20
2017-10-30T15:10:49.009Z,12.00
2017-10-30T15:13:16.541Z,11.50
2017-10-30T15:15:44.775Z,11.10
2017-10-30T15:18:12.405Z,11.10
2017-10-30T15:20:39.882Z,10.10
2017-10-30T15:23:07.495Z,9.30
2017-10-30T15:25:35.767Z,8.30
2017-10-30T15:28:04.013Z,8.00
2017-10-30T15:30:31.487Z,7.90
2017-10-30T15:32:59.064Z,7.70
2017-10-30T15:35:27.337Z,7.20
2017-10-30T15:37:55.578Z,7.00
2017-10-30T15:40:23.069Z,7.00
2017-10-30T15:42:51.349Z,6.80
2017-10-30T15:45:19.626Z,6.60
2017-10-30T15:47:47.122Z,6.60
2017-10-30T15:50:15.464Z,6.50
2017-10-30T15:52:43.700Z,6.30
2017-10-30T15:55:11.198Z,6.30
2017-10-30T15:57:39.442Z,6.10
2017-10-30T16:00:06.928Z,6.10
2017-10-30T16:02:35.176Z,5.80
2017-10-30T16:05:02.647Z,5.80
2017-10-30T16:07:30.131Z,5.80
2017-10-30T16:09:58.391Z,5.60
2017-10-30T16:12:25.961Z,5.60
2017-10-30T16:14:54.269Z,5.40
2017-10-30T16:17:21.747Z,5.40
2017-10-30T16:19:49.215Z,5.40
2017-10-30T16:22:16.691Z,5.30
2017-10-30T16:24:44.171Z,5.30
2017-10-30T16:27:12.422Z,5.10
2017-10-30T16:29:40.006Z,5.10
2017-10-30T16:32:08.284Z,5.00
2017-10-30T16:34:36.560Z,4.90
2017-10-30T16:37:04.841Z,4.80
2017-10-30T16:39:33.117Z,4.80
2017-10-30T16:42:00.670Z,4.80
2017-10-30T16:44:28.927Z,4.60
2017-10-30T16:46:56.416Z,4.60
2017-10-30T16:49:23.888Z,4.50
2017-10-30T16:51:51.359Z,4.50
2017-10-30T16:54:18.839Z,4.40
2017-10-30T16:56:46.335Z,4.40
2017-10-30T16:59:14.588Z,4.30
2017-10-30T17:01:42.075Z,4.30
2017-10-30T17:04:10.323Z,4.20
2017-10-30T17:06:37.795Z,4.20
2017-10-30T17:09:05.367Z,4.10
2017-10-30T17:11:33.599Z,4.10
2017-10-30T17:14:01.075Z,4.10
2017-10-30T17:16:28.556Z,4.10
2017-10-30T17:18:56.795Z,4.00
2017-10-30T17:21:24.295Z,4.00
2017-10-30T17:23:52.563Z,4.00
2017-10-30T17:26:20.047Z,4.00
2017-10-30T17:28:47.587Z,4.00
2017-10-30T17:31:15.255Z,4.00
2017-10-30T17:33:43.496Z,3.90
2017-10-30T17:36:11.019Z,3.90
2017-10-30T17:38:38.538Z,3.90
2017-10-30T17:41:06.019Z,3.80
2017-10-30T17:43:34.264Z,3.70
2017-10-30T17:46:02.014Z,3.70
2017-10-30T17:48:29.606Z,3.70
2017-10-30T17:50:57.855Z,3.80
2017-10-30T17:53:25.339Z,3.70
2017-10-30T17:55:53.616Z,3.70
2017-10-30T17:58:21.854Z,3.70
2017-10-30T18:00:50.412Z,3.70
2017-10-30T18:03:17.932Z,3.80
2017-10-30T18:05:46.180Z,3.80
2017-10-30T18:08:13.770Z,3.80
2017-10-30T18:10:42.016Z,3.70
2017-10-30T18:13:09.492Z,3.70
2017-10-30T18:15:36.971Z,3.60
2017-10-30T18:18:05.237Z,3.60
2017-10-30T18:20:33.589Z,3.60
2017-10-30T18:23:01.131Z,3.60
2017-10-30T18:25:28.611Z,3.50
2017-10-30T18:27:56.095Z,3.50
2017-10-30T18:30:24.369Z,3.40
2017-10-30T18:32:52.637Z,3.40
2017-10-30T18:35:21.795Z,3.30
2017-10-30T18:37:49.284Z,3.30
2017-10-30T18:40:17.588Z,3.30
2017-10-30T18:42:45.834Z,3.20
2017-10-30T18:45:13.385Z,3.20
2017-10-30T18:47:40.910Z,3.20
2017-10-30T18:50:13.842Z,3.10
2017-10-30T18:52:41.347Z,3.10
2017-10-30T18:55:08.826Z,3.00
2017-10-30T18:57:36.348Z,2.90
2017-10-30T19:00:04.726Z,2.70
2017-10-30T19:02:33.294Z,2.60
2017-10-30T19:05:00.787Z,2.60
2017-10-30T19:07:28.323Z,2.50
2017-10-30T19:09:56.587Z,2.30
2017-10-30T19:12:24.154Z,2.30
2017-10-30T19:14:53.361Z,2.40
2017-10-30T19:17:21.644Z,2.30
2017-10-30T19:19:49.887Z,2.30
2017-10-30T19:22:17.396Z,2.20
2017-10-30T19:24:44.929Z,2.20
2017-10-30T19:27:13.235Z,2.10
2017-10-30T19:29:40.760Z,2.10
2017-10-30T19:32:09.051Z,2.10
2017-10-30T19:34:37.306Z,2.20
2017-10-30T19:37:04.793Z,2.20
2017-10-30T19:39:32.299Z,2.20
2017-10-30T19:41:59.781Z,2.20
2017-10-30T19:44:28.035Z,2.30
2017-10-30T19:46:55.511Z,2.30
2017-10-30T19:49:23.714Z,2.30
2017-10-30T19:51:51.216Z,2.40
2017-10-30T19:54:18.704Z,2.40
2017-10-30T19:56:46.169Z,2.50
2017-10-30T19:59:14.433Z,2.70
2017-10-30T20:01:41.928Z,2.60
2017-10-30T20:04:09.483Z,2.80
2017-10-30T20:06:42.748Z,2.80
2017-10-30T20:09:15.932Z,2.90
2017-10-30T20:11:49.192Z,2.90
2017-10-30T20:14:16.711Z,3.00
2017-10-30T20:16:44.199Z,3.10
2017-10-30T20:19:11.679Z,3.20
2017-10-30T20:21:39.192Z,3.20
2017-10-30T20:24:07.448Z,3.20
2017-10-30T20:26:35.008Z,3.20
2017-10-30T20:29:03.264Z,3.30
2017-10-30T20:31:30.775Z,3.20
2017-10-30T20:33:58.341Z,3.20
2017-10-30T20:36:25.823Z,3.20
2017-10-30T20:38:54.251Z,3.10
2017-10-30T20:41:22.512Z,2.90
2017-10-30T20:43:50.086Z,2.90
2017-10-30T20:46:18.363Z,2.70
2017-10-30T20:48:46.677Z,2.70
2017-10-30T20:51:14.198Z,2.70
2017-10-30T20:53:42.479Z,2.60
2017-10-30T20:56:10.792Z,2.50
2017-10-30T20:58:38.275Z,2.50
2017-10-30T21:01:05.769Z,2.50
2017-10-30T21:03:34.040Z,2.40
2017-10-30T21:06:02.300Z,2.40
2017-10-30T21:08:29.780Z,2.40
2017-10-30T21:10:58.040Z,2.40
2017-10-30T21:13:25.516Z,2.30
2017-10-30T21:15:54.684Z,2.50
2017-10-30T21:18:22.194Z,2.50
2017-10-30T21:20:49.741Z,2.60
2017-10-30T21:23:17.984Z,2.60
2017-10-30T21:25:47.002Z,2.50
2017-10-30T21:28:15.247Z,2.50
2017-10-30T21:30:42.724Z,2.50
2017-10-30T21:33:10.331Z,2.40
2017-10-30T21:35:37.839Z,2.40
2017-10-30T21:38:06.824Z,2.40
2017-10-30T21:40:34.320Z,2.40
2017-10-30T21:43:02.579Z,2.40
2017-10-30T21:45:30.839Z,2.40
2017-10-30T21:47:58.352Z,2.40
2017-10-30T21:50:25.893Z,2.40
2017-10-30T21:52:53.386Z,2.40
2017-10-30T21:55:21.006Z,2.30
2017-10-30T21:57:49.251Z,2.20
2017-10-30T22:00:17.501Z,2.20
2017-10-30T22:02:44.989Z,2.20
2017-10-30T22:05:12.603Z,2.20
2017-10-30T22:07:40.132Z,2.30
2017-10-30T22:10:08.388Z,2.40
2017-10-30T22:12:38.214Z,2.50
2017-10-30T22:15:06.495Z,2.50
2017-10-30T22:17:53.355Z,2.50
2017-10-30T22:20:20.839Z,2.60
2017-10-30T22:22:48.423Z,2.80
2017-10-30T22:25:16.676Z,2.80
2017-10-30T22:27:44.209Z,2.80
2017-10-30T22:30:11.714Z,2.80
2017-10-30T22:32:39.203Z,2.70
2017-10-30T22:35:06.684Z,2.70
2017-10-30T22:37:34.159Z,2.60
2017-10-30T22:40:01.659Z,2.70
2017-10-30T22:42:29.905Z,2.80
2017-10-30T22:44:57.391Z,2.70
2017-10-30T22:47:26.061Z,2.90
2017-10-30T22:49:55.224Z,3.00
2017-10-30T22:52:22.831Z,2.90
2017-10-30T22:54:51.090Z,3.10
2017-10-30T22:57:18.576Z,3.10
2017-10-30T22:59:46.862Z,3.20
2017-10-30T23:02:27.519Z,3.10
2017-10-30T23:04:55.390Z,3.20
2017-10-30T23:10:14.023Z,3.20
2017-10-30T23:12:41.615Z,3.30
2017-10-30T23:15:09.891Z,3.20
2017-10-30T23:17:38.168Z,3.30
2017-10-30T23:20:06.412Z,3.30
2017-10-30T23:22:33.890Z,3.30
2017-10-30T23:25:01.384Z,3.30
2017-10-30T23:27:28.911Z,3.30
2017-10-30T23:29:57.167Z,3.30
2017-10-30T23:32:25.583Z,3.30
2017-10-30T23:34:53.827Z,3.30
2017-10-30T23:37:21.303Z,3.30
2017-10-30T23:39:49.559Z,3.30
2017-10-30T23:42:18.403Z,3.30
2017-10-30T23:44:46.043Z,3.30
2017-10-30T23:47:14.298Z,3.40
2017-10-30T23:49:41.787Z,3.40
2017-10-30T23:52:09.262Z,3.40
2017-10-30T23:54:36.782Z,3.40
2017-10-30T23:57:05.032Z,3.50
2017-10-30T23:59:34.019Z,3.50
